createdAt,value
2018-03-23T00:02:09.306Z,74.10
2018-03-23T00:04:37.675Z,73.30
2018-03-23T00:07:06.066Z,73.30
2018-03-23T00:09:34.446Z,73.60
2018-03-23T00:12:02.853Z,73.50
2018-03-23T00:14:31.990Z,74.70
2018-03-23T00:17:00.408Z,73.80
2018-03-23T00:19:28.783Z,74.20
2018-03-23T00:21:57.164Z,74.50
2018-03-23T00:24:25.554Z,74.30
2018-03-23T00:26:53.930Z,74.40
2018-03-23T00:29:23.160Z,74.40
2018-03-23T00:31:51.533Z,74.20
2018-03-23T00:34:20.914Z,74.10
2018-03-23T00:36:49.284Z,74.10
2018-03-23T00:39:17.676Z,73.90
2018-03-23T00:41:46.844Z,74.80
2018-03-23T00:44:15.217Z,74.30
2018-03-23T00:46:43.631Z,74.20
2018-03-23T00:49:12.766Z,73.40
2018-03-23T00:51:41.369Z,73.90
2018-03-23T00:54:09.744Z,74.10
2018-03-23T00:56:38.122Z,74.00
2018-03-23T00:59:06.530Z,74.00
2018-03-23T01:01:34.898Z,74.10
2018-03-23T01:04:03.294Z,74.40
2018-03-23T01:06:32.432Z,74.90
2018-03-23T01:09:00.860Z,74.90
2018-03-23T01:11:29.259Z,75.00
2018-03-23T01:13:58.406Z,75.30
2018-03-23T01:16:26.816Z,75.30
2018-03-23T01:18:55.202Z,75.30
2018-03-23T01:21:24.361Z,75.40
2018-03-23T01:23:52.731Z,75.40
2018-03-23T01:26:21.332Z,75.20
2018-03-23T01:28:49.717Z,75.00
2018-03-23T01:31:18.090Z,74.90
2018-03-23T01:33:46.512Z,74.90
2018-03-23T01:36:15.658Z,74.80
2018-03-23T01:38:44.050Z,74.80
2018-03-23T01:41:12.420Z,74.50
2018-03-23T01:43:40.829Z,74.40
2018-03-23T01:46:09.282Z,74.30
2018-03-23T01:48:37.655Z,74.10
2018-03-23T01:51:06.069Z,74.30
2018-03-23T01:53:44.498Z,74.20
2018-03-23T01:56:13.661Z,74.20
2018-03-23T01:58:42.041Z,74.20
2018-03-23T02:01:10.458Z,74.00
2018-03-23T02:03:39.602Z,73.90
2018-03-23T02:06:07.966Z,73.90
2018-03-23T02:08:36.369Z,74.20
2018-03-23T02:11:04.743Z,74.40
2018-03-23T02:13:33.143Z,74.60
2018-03-23T02:16:01.522Z,74.50
2018-03-23T02:18:29.930Z,74.80
2018-03-23T02:20:58.310Z,74.80
2018-03-23T02:23:26.699Z,75.50
2018-03-23T02:25:55.123Z,74.70
2018-03-23T02:28:23.499Z,74.60
2018-03-23T02:30:51.927Z,74.80
2018-03-23T02:33:20.291Z,74.80
2018-03-23T02:35:49.433Z,74.80
2018-03-23T02:38:17.830Z,74.80
2018-03-23T02:40:46.199Z,75.00
2018-03-23T02:43:14.594Z,74.80
2018-03-23T02:45:42.992Z,74.80
2018-03-23T02:48:12.343Z,75.10
2018-03-23T02:50:40.717Z,75.10
2018-03-23T02:53:10.062Z,75.20
2018-03-23T02:55:38.454Z,75.20
2018-03-23T02:58:07.599Z,75.20
2018-03-23T03:00:36.005Z,75.20
2018-03-23T03:03:04.387Z,75.20
2018-03-23T03:05:32.937Z,75.30
2018-03-23T03:08:01.313Z,75.60
2018-03-23T03:10:29.689Z,75.80
2018-03-23T03:12:58.102Z,75.80
2018-03-23T03:15:26.485Z,75.50
2018-03-23T03:17:54.890Z,75.30
2018-03-23T03:20:24.023Z,74.90
2018-03-23T03:22:52.729Z,74.90
2018-03-23T03:25:21.122Z,74.80
2018-03-23T03:27:49.501Z,74.60
2018-03-23T03:30:17.902Z,74.80
2018-03-23T03:32:47.039Z,74.70
2018-03-23T03:35:15.434Z,74.60
2018-03-23T03:37:43.817Z,74.40
2018-03-23T03:40:12.378Z,74.60
2018-03-23T03:42:40.754Z,74.30
2018-03-23T03:45:09.126Z,74.50
2018-03-23T03:47:37.533Z,74.60
2018-03-23T03:50:05.946Z,74.70
2018-03-23T03:52:34.340Z,74.60
2018-03-23T03:55:03.496Z,75.30
2018-03-23T03:57:31.911Z,74.50
2018-03-23T04:00:01.050Z,74.60
2018-03-23T04:02:29.444Z,74.60
2018-03-23T04:04:57.851Z,74.60
2018-03-23T04:07:26.230Z,74.50
2018-03-23T04:09:54.630Z,74.50
2018-03-23T04:12:23.846Z,74.70
2018-03-23T04:14:52.555Z,74.60
2018-03-23T04:17:20.920Z,74.60
2018-03-23T04:22:18.079Z,75.10
2018-03-23T04:24:46.481Z,75.00
2018-03-23T04:27:15.183Z,75.10
2018-03-23T04:29:44.370Z,75.30
2018-03-23T04:32:12.812Z,75.80
2018-03-23T04:34:41.333Z,75.70
2018-03-23T04:37:09.829Z,75.90
2018-03-23T04:39:38.221Z,76.00
2018-03-23T04:42:06.607Z,76.10
2018-03-23T04:44:35.766Z,76.80
2018-03-23T04:47:04.125Z,76.80
2018-03-23T04:49:32.550Z,76.80
2018-03-23T04:52:00.922Z,76.80
2018-03-23T04:54:29.299Z,76.60
2018-03-23T04:56:57.701Z,76.70
2018-03-23T04:59:26.106Z,76.80
2018-03-23T05:01:55.778Z,76.80
2018-03-23T05:04:24.790Z,76.80
2018-03-23T05:06:55.019Z,77.10
2018-03-23T05:09:23.824Z,76.90
2018-03-23T05:11:52.814Z,76.70
2018-03-23T05:14:21.693Z,76.80
2018-03-23T05:16:50.716Z,76.70
2018-03-23T05:19:19.845Z,76.80
2018-03-23T05:21:50.673Z,76.60
2018-03-23T05:24:19.780Z,76.70
2018-03-23T05:26:49.867Z,77.10
2018-03-23T05:29:18.238Z,77.10
2018-03-23T05:31:46.635Z,77.40
2018-03-23T05:34:15.001Z,77.50
2018-03-23T05:36:43.386Z,77.30
2018-03-23T05:39:11.763Z,77.30
2018-03-23T05:41:40.330Z,77.40
2018-03-23T05:44:08.709Z,77.40
2018-03-23T05:46:37.086Z,77.10
2018-03-23T05:49:05.493Z,77.10
2018-03-23T05:51:33.866Z,76.90
2018-03-23T05:54:02.252Z,76.70
2018-03-23T05:56:30.623Z,76.70
2018-03-23T05:58:59.387Z,76.40
2018-03-23T06:01:27.763Z,76.50
2018-03-23T06:03:56.193Z,76.60
2018-03-23T06:06:24.622Z,76.50
2018-03-23T06:08:52.997Z,76.50
2018-03-23T06:11:21.381Z,76.60
2018-03-23T06:13:49.756Z,76.40
2018-03-23T06:16:18.343Z,76.50
2018-03-23T06:18:46.717Z,76.10
2018-03-23T06:21:15.108Z,75.80
2018-03-23T06:23:43.498Z,75.90
2018-03-23T06:26:11.873Z,75.90
2018-03-23T06:28:40.274Z,75.90
2018-03-23T06:31:08.642Z,75.80
2018-03-23T06:33:37.303Z,75.60
2018-03-23T06:36:05.682Z,75.30
2018-03-23T06:38:36.848Z,75.60
2018-03-23T06:41:05.252Z,75.60
2018-03-23T06:43:34.634Z,75.90
2018-03-23T06:46:03.418Z,75.90
2018-03-23T06:48:31.794Z,75.70
2018-03-23T06:51:00.222Z,75.70
2018-03-23T06:53:28.606Z,75.80
2018-03-23T06:55:56.979Z,75.50
2018-03-23T06:58:25.385Z,75.50
2018-03-23T07:00:53.762Z,75.50
2018-03-23T07:03:22.148Z,75.30
2018-03-23T07:05:50.518Z,75.40
2018-03-23T07:08:18.938Z,75.60
2018-03-23T07:10:47.334Z,75.50
2018-03-23T07:13:16.480Z,75.40
2018-03-23T07:15:44.898Z,75.40
2018-03-23T07:18:13.261Z,75.50
2018-03-23T07:20:42.438Z,75.50
2018-03-23T07:23:10.821Z,75.60
2018-03-23T07:25:39.283Z,75.60
2018-03-23T07:28:07.660Z,75.50
2018-03-23T07:30:36.039Z,75.90
2018-03-23T07:33:04.438Z,75.90
2018-03-23T07:35:32.818Z,75.70
2018-03-23T07:38:01.252Z,75.80
2018-03-23T07:40:29.623Z,76.00
2018-03-23T07:42:58.803Z,76.40
2018-03-23T07:45:27.221Z,76.40
2018-03-23T07:47:55.609Z,76.90
2018-03-23T07:50:24.011Z,76.20
2018-03-23T07:52:52.387Z,76.20
2018-03-23T07:55:20.785Z,75.70
2018-03-23T07:57:49.199Z,75.60
2018-03-23T08:00:17.955Z,75.30
2018-03-23T08:02:47.836Z,75.20
2018-03-23T08:05:16.214Z,75.20
2018-03-23T08:07:44.606Z,74.90
2018-03-23T08:10:12.977Z,74.60
2018-03-23T08:12:41.370Z,74.70
2018-03-23T08:15:18.940Z,74.60
2018-03-23T08:17:47.452Z,74.60
2018-03-23T08:20:15.831Z,74.60
2018-03-23T08:22:44.206Z,74.60
2018-03-23T08:25:12.610Z,74.60
2018-03-23T08:27:41.834Z,74.70
2018-03-23T08:30:10.322Z,74.60
2018-03-23T08:32:38.794Z,74.40
2018-03-23T08:35:08.138Z,74.30
2018-03-23T08:37:37.370Z,74.00
2018-03-23T08:40:05.772Z,74.10
2018-03-23T08:42:34.161Z,74.20
2018-03-23T08:45:02.526Z,74.60
2018-03-23T08:47:30.926Z,74.10
2018-03-23T08:49:59.304Z,74.00
2018-03-23T08:52:27.897Z,74.20
2018-03-23T08:54:56.278Z,73.90
2018-03-23T08:57:25.965Z,74.40
2018-03-23T08:59:54.441Z,74.60
2018-03-23T09:02:22.862Z,73.90
2018-03-23T09:04:51.268Z,73.70
2018-03-23T09:07:20.475Z,73.50
2018-03-23T09:09:49.645Z,73.50
2018-03-23T09:12:18.051Z,73.40
2018-03-23T09:14:47.206Z,72.90
2018-03-23T09:17:15.602Z,72.90
2018-03-23T09:19:43.987Z,73.10
2018-03-23T09:22:12.466Z,72.80
2018-03-23T09:24:40.892Z,72.30
2018-03-23T09:27:09.519Z,72.10
2018-03-23T09:29:38.377Z,72.50
2018-03-23T09:32:07.313Z,72.50
2018-03-23T09:34:35.718Z,72.50
2018-03-23T09:37:04.182Z,72.90
2018-03-23T09:39:32.626Z,72.20
2018-03-23T09:42:01.006Z,72.60
2018-03-23T09:44:29.423Z,72.50
2018-03-23T09:46:58.611Z,72.50
2018-03-23T09:49:26.995Z,73.10
2018-03-23T09:51:56.241Z,71.00
2018-03-23T09:54:24.657Z,71.00
2018-03-23T09:56:53.042Z,70.90
2018-03-23T09:59:21.438Z,70.70
2018-03-23T10:01:51.705Z,70.30
2018-03-23T10:04:20.531Z,70.30
2018-03-23T10:06:48.912Z,70.10
2018-03-23T10:09:17.311Z,70.50
2018-03-23T10:11:46.542Z,70.10
2018-03-23T10:14:14.943Z,70.10
2018-03-23T10:16:43.317Z,69.30
2018-03-23T10:19:11.982Z,69.20
2018-03-23T10:21:40.409Z,69.60
2018-03-23T10:24:08.786Z,69.20
2018-03-23T10:26:37.187Z,69.30
2018-03-23T10:29:05.631Z,69.10
2018-03-23T10:31:34.020Z,69.50
2018-03-23T10:34:02.559Z,69.30
2018-03-23T10:36:30.963Z,69.20
2018-03-23T10:38:59.346Z,68.70
2018-03-23T10:41:27.734Z,68.30
2018-03-23T10:43:56.177Z,68.60
2018-03-23T10:46:24.553Z,68.50
2018-03-23T10:48:53.022Z,67.90
2018-03-23T10:51:21.404Z,67.90
2018-03-23T10:53:50.003Z,67.80
2018-03-23T10:56:18.379Z,67.90
2018-03-23T10:58:46.749Z,68.10
2018-03-23T11:01:20.763Z,67.80
2018-03-23T11:03:49.206Z,68.00
2018-03-23T11:06:17.579Z,68.20
2018-03-23T11:08:46.779Z,67.50
2018-03-23T11:11:16.714Z,67.60
2018-03-23T11:13:45.094Z,67.50
2018-03-23T11:16:13.509Z,67.40
2018-03-23T11:18:41.886Z,67.40
2018-03-23T11:21:10.255Z,67.40
2018-03-23T11:23:38.664Z,67.50
2018-03-23T11:26:07.050Z,67.60
2018-03-23T11:28:35.481Z,67.40
2018-03-23T11:31:03.887Z,67.30
2018-03-23T11:33:32.304Z,67.70
2018-03-23T11:36:01.458Z,68.10
2018-03-23T11:38:30.088Z,68.10
2018-03-23T11:40:59.241Z,68.40
2018-03-23T11:43:27.642Z,68.40
2018-03-23T11:45:56.070Z,68.20
2018-03-23T11:48:24.447Z,68.60
2018-03-23T11:50:53.058Z,68.40
2018-03-23T11:53:22.371Z,68.00
2018-03-23T11:55:50.759Z,67.80
2018-03-23T11:58:19.226Z,67.40
2018-03-23T12:00:47.600Z,67.40
2018-03-23T12:03:16.261Z,67.60
2018-03-23T12:05:44.647Z,67.70
2018-03-23T12:08:13.012Z,67.30
2018-03-23T12:10:41.422Z,66.70
2018-03-23T12:13:09.803Z,65.70
2018-03-23T12:15:38.225Z,65.70
2018-03-23T12:18:07.362Z,65.20
2018-03-23T12:20:35.745Z,65.20
2018-03-23T12:23:04.143Z,64.90
2018-03-23T12:25:32.514Z,64.80
2018-03-23T12:28:00.937Z,64.70
2018-03-23T12:30:29.315Z,64.80
2018-03-23T12:32:57.706Z,65.40
2018-03-23T12:35:26.086Z,65.10
2018-03-23T12:37:54.718Z,65.10
2018-03-23T12:40:23.046Z,65.00
2018-03-23T12:42:51.450Z,64.20
2018-03-23T12:45:19.846Z,64.30
2018-03-23T12:47:48.227Z,64.10
2018-03-23T12:50:16.657Z,64.00
2018-03-23T12:52:45.042Z,64.40
2018-03-23T12:55:13.409Z,64.20
2018-03-23T12:57:41.795Z,64.50
2018-03-23T13:00:10.170Z,64.00
2018-03-23T13:02:38.576Z,62.90
2018-03-23T13:05:07.007Z,62.90
2018-03-23T13:07:36.281Z,61.20
2018-03-23T13:10:04.663Z,61.10
2018-03-23T13:12:33.036Z,61.50
2018-03-23T13:15:01.433Z,61.30
2018-03-23T13:17:29.803Z,60.90
2018-03-23T13:19:58.342Z,60.10
2018-03-23T13:22:26.718Z,59.30
2018-03-23T13:24:55.094Z,58.70
2018-03-23T13:27:23.495Z,57.70
2018-03-23T13:29:51.874Z,55.40
2018-03-23T13:32:20.457Z,55.50
2018-03-23T13:34:48.838Z,55.90
2018-03-23T13:37:17.211Z,55.10
2018-03-23T13:39:45.617Z,55.10
2018-03-23T13:42:14.111Z,55.50
2018-03-23T13:44:43.593Z,56.50
2018-03-23T13:47:11.987Z,56.40
2018-03-23T13:49:41.140Z,55.40
2018-03-23T13:52:09.537Z,56.30
2018-03-23T13:54:37.913Z,55.70
2018-03-23T13:57:06.403Z,56.20
2018-03-23T13:59:40.213Z,56.60
2018-03-23T14:05:06.876Z,56.70
2018-03-23T14:07:35.379Z,56.10
2018-03-23T14:10:04.539Z,56.30
2018-03-23T14:12:32.911Z,56.30
2018-03-23T14:15:01.314Z,56.60
2018-03-23T14:17:29.689Z,56.70
2018-03-23T14:19:58.335Z,57.20
2018-03-23T14:22:26.806Z,57.20
2018-03-23T14:24:55.179Z,57.70
2018-03-23T14:27:23.575Z,58.20
2018-03-23T14:29:51.963Z,57.80
2018-03-23T14:32:20.490Z,57.70
2018-03-23T14:34:49.635Z,57.70
2018-03-23T14:37:18.324Z,57.70
2018-03-23T14:39:46.745Z,57.30
2018-03-23T14:42:16.005Z,57.10
2018-03-23T14:44:45.205Z,56.60
2018-03-23T14:47:13.818Z,55.80
2018-03-23T14:49:43.216Z,55.00
2018-03-23T14:52:11.615Z,55.00
2018-03-23T14:54:40.971Z,54.30
2018-03-23T14:57:09.344Z,54.30
2018-03-23T14:59:37.726Z,53.30
2018-03-23T15:02:06.180Z,53.80
2018-03-23T15:04:34.555Z,54.20
2018-03-23T15:07:03.011Z,55.20
2018-03-23T15:09:32.245Z,55.80
2018-03-23T15:12:00.639Z,55.80
2018-03-23T15:14:31.783Z,56.20
2018-03-23T15:17:00.262Z,55.20
2018-03-23T15:19:28.638Z,55.00
2018-03-23T15:21:57.014Z,54.70
2018-03-23T15:24:25.418Z,54.50
2018-03-23T15:26:54.577Z,54.10
2018-03-23T15:29:22.983Z,54.10
2018-03-23T15:31:51.357Z,54.30
2018-03-23T15:34:20.240Z,54.50
2018-03-23T15:36:48.621Z,54.10
2018-03-23T15:39:16.990Z,54.60
2018-03-23T15:41:45.387Z,54.20
2018-03-23T15:44:13.776Z,53.80
2018-03-23T15:46:42.970Z,53.00
2018-03-23T15:49:11.348Z,52.70
2018-03-23T15:51:39.774Z,51.60
2018-03-23T15:54:08.146Z,51.90
2018-03-23T15:56:37.278Z,52.60
2018-03-23T15:59:05.682Z,52.50
2018-03-23T16:01:34.066Z,52.80
2018-03-23T16:04:02.461Z,52.90
2018-03-23T16:06:31.609Z,53.50
2018-03-23T16:09:00.195Z,53.50
2018-03-23T16:11:28.577Z,53.90
2018-03-23T16:13:56.951Z,54.70
2018-03-23T16:16:25.361Z,54.20
2018-03-23T16:18:53.775Z,54.80
2018-03-23T16:21:22.219Z,55.10
2018-03-23T16:23:50.602Z,55.60
2018-03-23T16:26:19.019Z,55.00
2018-03-23T16:28:47.402Z,55.30
2018-03-23T16:31:16.278Z,55.50
2018-03-23T16:33:44.727Z,55.60
2018-03-23T16:36:13.206Z,55.60
2018-03-23T16:38:41.610Z,55.80
2018-03-23T16:41:10.756Z,56.00
2018-03-23T16:43:39.340Z,56.00
2018-03-23T16:46:07.752Z,56.10
2018-03-23T16:48:36.146Z,56.10
2018-03-23T16:51:05.406Z,56.40
2018-03-23T16:53:33.907Z,56.40
2018-03-23T16:56:03.029Z,56.30
2018-03-23T16:58:32.179Z,56.50
2018-03-23T17:01:00.990Z,57.20
2018-03-23T17:03:30.233Z,57.90
2018-03-23T17:05:58.758Z,57.90
2018-03-23T17:08:27.540Z,57.60
2018-03-23T17:10:56.564Z,57.30
2018-03-23T17:13:26.319Z,57.70
2018-03-23T17:15:54.725Z,57.60
2018-03-23T17:18:23.209Z,57.90
2018-03-23T17:20:51.884Z,57.50
2018-03-23T17:23:20.363Z,57.90
2018-03-23T17:25:49.025Z,57.50
2018-03-23T17:28:17.427Z,57.40
2018-03-23T17:30:45.834Z,57.50
2018-03-23T17:33:15.752Z,57.50
2018-03-23T17:35:44.394Z,57.50
2018-03-23T17:38:12.957Z,57.80
2018-03-23T17:40:41.703Z,58.00
2018-03-23T17:43:12.615Z,58.00
2018-03-23T17:45:41.077Z,58.00
2018-03-23T17:48:09.507Z,58.10
2018-03-23T17:50:37.881Z,58.10
2018-03-23T17:53:06.288Z,58.20
2018-03-23T17:55:34.704Z,58.60
2018-03-23T17:58:03.093Z,58.40
2018-03-23T18:00:31.523Z,58.40
2018-03-23T18:02:59.920Z,58.50
2018-03-23T18:05:28.318Z,58.70
2018-03-23T18:07:56.963Z,59.00
2018-03-23T18:10:26.595Z,59.20
2018-03-23T18:12:54.962Z,59.30
2018-03-23T18:15:23.347Z,59.30
2018-03-23T18:17:52.445Z,59.50
2018-03-23T18:20:20.857Z,59.60
2018-03-23T18:22:49.305Z,59.80
2018-03-23T18:25:17.745Z,60.10
2018-03-23T18:27:46.915Z,60.30
2018-03-23T18:30:15.298Z,60.30
2018-03-23T18:32:43.704Z,60.50
2018-03-23T18:35:12.107Z,60.70
2018-03-23T18:37:40.737Z,60.80
2018-03-23T18:42:58.809Z,60.90
2018-03-23T18:45:27.178Z,60.70
2018-03-23T18:47:57.903Z,60.80
2018-03-23T18:50:29.156Z,60.90
2018-03-23T18:52:58.425Z,61.30
2018-03-23T18:55:26.833Z,61.30
2018-03-23T18:57:55.211Z,61.50
2018-03-23T19:00:23.610Z,61.50
2018-03-23T19:02:52.810Z,61.70
2018-03-23T19:05:21.429Z,61.60
2018-03-23T19:07:50.954Z,61.70
2018-03-23T19:10:20.475Z,62.10
2018-03-23T19:12:49.469Z,62.00
2018-03-23T19:15:17.995Z,62.10
2018-03-23T19:17:46.924Z,62.00
2018-03-23T19:20:15.571Z,62.10
2018-03-23T19:22:44.068Z,62.40
2018-03-23T19:25:13.103Z,62.30
2018-03-23T19:27:41.743Z,62.40
2018-03-23T19:30:10.155Z,62.70
2018-03-23T19:32:39.262Z,62.80
2018-03-23T19:35:07.654Z,62.80
2018-03-23T19:37:36.204Z,62.70
2018-03-23T19:40:04.653Z,62.90
2018-03-23T19:42:33.062Z,63.10
2018-03-23T19:45:01.501Z,63.20
2018-03-23T19:47:30.666Z,63.20
2018-03-23T19:49:59.067Z,63.20
2018-03-23T19:52:28.230Z,63.30
2018-03-23T19:54:56.617Z,63.30
2018-03-23T19:57:25.017Z,63.40
2018-03-23T19:59:58.353Z,63.30
2018-03-23T20:02:34.364Z,63.30
2018-03-23T20:05:08.474Z,63.20
2018-03-23T20:07:43.473Z,63.50
2018-03-23T20:10:18.297Z,63.40
2018-03-23T20:12:55.283Z,63.50
2018-03-23T20:15:24.246Z,63.50
2018-03-23T20:17:59.720Z,63.80
2018-03-23T20:20:33.953Z,63.70
2018-03-23T20:23:03.770Z,64.00
2018-03-23T20:25:32.257Z,64.00
2018-03-23T20:28:06.546Z,64.20
2018-03-23T20:30:34.995Z,64.70
2018-03-23T20:33:03.523Z,64.70
2018-03-23T20:35:32.065Z,64.90
2018-03-23T20:38:00.568Z,65.00
2018-03-23T20:40:28.979Z,65.20
2018-03-23T20:42:58.066Z,65.10
2018-03-23T20:45:26.585Z,65.40
2018-03-23T20:47:54.963Z,66.40
2018-03-23T20:50:23.394Z,66.30
2018-03-23T20:52:51.799Z,65.70
2018-03-23T20:55:20.178Z,65.70
2018-03-23T20:57:48.679Z,66.10
2018-03-23T21:00:17.816Z,66.30
2018-03-23T21:02:46.588Z,66.30
2018-03-23T21:05:14.964Z,66.20
2018-03-23T21:07:44.223Z,66.40
2018-03-23T21:10:13.663Z,66.50
2018-03-23T21:12:42.102Z,66.50
2018-03-23T21:15:10.951Z,66.70
2018-03-23T21:17:39.595Z,66.80
2018-03-23T21:20:08.833Z,66.90
2018-03-23T21:22:37.752Z,66.80
2018-03-23T21:25:06.366Z,67.30
2018-03-23T21:27:35.528Z,67.40
2018-03-23T21:30:04.691Z,67.40
2018-03-23T21:32:33.094Z,67.30
2018-03-23T21:35:01.507Z,67.30
2018-03-23T21:37:30.758Z,67.20
2018-03-23T21:39:59.382Z,67.20
2018-03-23T21:42:28.131Z,67.20
2018-03-23T21:44:57.681Z,66.90
2018-03-23T21:47:26.828Z,66.90
2018-03-23T21:49:55.222Z,66.90
2018-03-23T21:52:23.791Z,66.90
2018-03-23T21:54:52.322Z,66.80
2018-03-23T21:57:21.515Z,67.30
2018-03-23T21:59:49.877Z,67.20
2018-03-23T22:02:18.294Z,67.50
2018-03-23T22:04:47.529Z,67.60
2018-03-23T22:07:16.340Z,67.60
2018-03-23T22:09:44.723Z,67.30
2018-03-23T22:12:13.384Z,67.30
2018-03-23T22:14:41.763Z,67.20
2018-03-23T22:17:10.187Z,67.10
2018-03-23T22:19:39.457Z,66.80
2018-03-23T22:22:07.834Z,66.80
2018-03-23T22:24:36.284Z,66.90
2018-03-23T22:27:04.666Z,66.90
2018-03-23T22:29:33.095Z,66.80
2018-03-23T22:32:01.538Z,67.10
2018-03-23T22:34:30.525Z,67.20
2018-03-23T22:36:58.964Z,67.20
2018-03-23T22:39:28.230Z,67.20
2018-03-23T22:41:56.631Z,67.10
2018-03-23T22:44:25.933Z,67.20
2018-03-23T22:46:55.183Z,67.20
2018-03-23T22:49:23.559Z,67.20
2018-03-23T22:51:51.970Z,67.20
2018-03-23T22:54:20.342Z,67.40
2018-03-23T22:56:48.753Z,67.50
2018-03-23T22:59:17.891Z,67.70
2018-03-23T23:01:46.258Z,67.60
2018-03-23T23:04:14.663Z,67.70
2018-03-23T23:06:43.038Z,67.70
2018-03-23T23:09:11.509Z,67.90
2018-03-23T23:11:39.875Z,67.90
2018-03-23T23:14:08.562Z,67.90
2018-03-23T23:16:37.021Z,67.90
2018-03-23T23:19:05.392Z,68.10
2018-03-23T23:21:34.595Z,68.60
2018-03-23T23:24:02.970Z,68.50
2018-03-23T23:26:31.369Z,68.70
2018-03-23T23:28:59.766Z,68.60
2018-03-23T23:31:28.255Z,68.70
2018-03-23T23:33:56.693Z,69.00
2018-03-23T23:36:25.621Z,69.40
2018-03-23T23:38:54.066Z,69.00
2018-03-23T23:41:22.563Z,68.90
2018-03-23T23:43:50.982Z,69.10
2018-03-23T23:46:19.362Z,69.10
2018-03-23T23:48:47.750Z,69.30
2018-03-23T23:51:16.123Z,69.10
2018-03-23T23:53:44.671Z,69.10
2018-03-23T23:56:13.048Z,69.20
2018-03-23T23:58:41.421Z,69.00
